Time;durP1;ratioP1;P1;durP2;ratioP2;P2;SDS_P1;SDS_P2;PMS_P1;PMS_P2;Temp;Humidity;BMP_temperature;BMP_pressure;BME280_temperature;BME280_humidity;BME280_pressure;Samples;Min_cycle;Max_cycle;Signal;HPM_P1;HPM_P2
2021/12/02 00:00:06;;;;;;;;;;;4.40;99.90;5.00;98458.00;;;;339063;28;86027;-90
2021/12/02 00:00:17;;;;;;;;;;;4.40;99.90;5.00;98454.00;;;;338023;28;83553;-90
2021/12/02 00:00:29;;;;;;;;;;;4.40;99.90;5.00;98459.00;;;;339177;28;85668;-90
2021/12/02 00:00:41;;;;;;;;;;;4.40;99.90;5.00;98455.00;;;;340546;28;83650;-90
2021/12/02 00:00:53;;;;;;;;;;;4.40;99.90;5.00;98455.00;;;;335327;28;84758;-90
2021/12/02 00:01:05;;;;;;;;;;;4.50;99.90;5.10;98454.00;;;;335297;28;83597;-90
2021/12/02 00:01:17;;;;;;;;;;;4.40;99.90;5.00;98458.00;;;;339146;28;86560;-90
2021/12/02 00:01:29;;;;;;;;;;;4.50;99.90;5.00;98450.00;;;;339281;28;83258;-90
2021/12/02 00:01:41;;;;;;;;;;;4.40;99.90;5.00;98457.00;;;;337829;28;84966;-90
2021/12/02 00:01:53;;;;;;;;;;;4.40;99.90;5.00;98458.00;;;;339444;28;82637;-90
2021/12/02 00:02:07;;;;;;;;;;;4.40;99.90;5.10;98455.00;;;;337670;28;86128;-90
2021/12/02 00:02:23;;;;;;;;;;;4.50;99.90;5.20;98460.00;;;;338008;28;83527;-90
2021/12/02 00:02:37;;;;;;;;;;;4.40;99.90;5.20;98453.00;;;;340252;28;86545;-91
2021/12/02 00:02:49;;;;;;;;;;;4.50;99.90;5.10;98451.00;;;;340757;28;83536;-90
2021/12/02 00:03:04;;;;;;;;;;;4.50;99.90;5.10;98453.00;;;;337903;28;83993;-91
2021/12/02 00:03:16;;;;;;;;;;;4.50;99.90;5.10;98445.00;;;;337859;28;83705;-91
2021/12/02 00:03:29;;;;;;;;;;;4.50;99.90;5.00;98451.00;;;;339234;28;84010;-91
2021/12/02 00:03:41;;;;;;;;;;;4.50;99.90;5.00;98452.00;;;;340639;28;82700;-91
2021/12/02 00:03:55;;;;;;;;;;;4.50;99.90;5.00;98449.00;;;;339071;28;84248;-90
2021/12/02 00:04:06;;;;;;;;;;;4.40;99.90;5.00;98449.00;;;;336660;28;83302;-91
2021/12/02 00:04:18;;;;;;;;;;;4.50;99.90;5.10;98434.00;;;;339070;28;85583;-91
2021/12/02 00:04:33;;;;;;;;;;;4.40;99.90;5.10;98444.00;;;;340711;28;83396;-90
2021/12/02 00:04:45;;;;;;;;;;;4.50;99.90;5.10;98453.00;;;;339292;28;84941;-90
2021/12/02 00:04:56;;;;;;;;;;;4.50;99.90;5.10;98445.00;;;;342098;28;83334;-90
2021/12/02 00:05:08;;;;;;;;;;;4.50;99.90;5.10;98453.00;;;;340383;28;85409;-91
2021/12/02 00:05:22;;;;;;;;;;;4.50;99.90;5.00;98439.00;;;;339172;28;82466;-90
2021/12/02 00:05:34;;;;;;;;;;;4.40;99.90;5.00;98455.00;;;;338043;28;86297;-90
2021/12/02 00:05:45;;;;;;;;;;;4.50;99.90;5.10;98453.00;;;;338144;28;83392;-90
2021/12/02 00:05:57;;;;;;;;;;;4.50;99.90;5.10;98445.00;;;;338113;28;84123;-91
2021/12/02 00:06:11;;;;;;;;;;;4.50;99.90;5.00;98447.00;;;;339674;28;82364;-91
2021/12/02 00:06:23;;;;;;;;;;;4.40;99.90;5.00;98449.00;;;;339147;28;86212;-91
2021/12/02 00:06:36;;;;;;;;;;;4.40;99.90;5.00;98453.00;;;;338124;28;83593;-91
2021/12/02 00:06:48;;;;;;;;;;;4.40;99.90;5.00;98455.00;;;;339541;28;85127;-91
2021/12/02 00:07:00;;;;;;;;;;;4.40;99.90;5.00;98439.00;;;;338573;28;83283;-91
2021/12/02 00:07:12;;;;;;;;;;;4.40;99.90;5.00;98446.00;;;;340508;28;85744;-90
2021/12/02 00:07:24;;;;;;;;;;;4.40;99.90;5.00;98445.00;;;;338443;28;82276;-91
2021/12/02 00:07:36;;;;;;;;;;;4.40;99.90;5.00;98456.00;;;;339604;28;84227;-90
2021/12/02 00:07:48;;;;;;;;;;;4.40;99.90;5.00;98449.00;;;;341173;28;82275;-91
2021/12/02 00:07:59;;;;;;;;;;;4.40;99.90;5.10;98448.00;;;;338476;28;82850;-91
2021/12/02 00:08:11;;;;;;;;;;;4.40;99.90;5.10;98445.00;;;;339531;28;83455;-90
2021/12/02 00:08:23;;;;;;;;;;;4.40;99.90;5.10;98453.00;;;;339655;28;85632;-91
2021/12/02 00:08:35;;;;;;;;;;;4.40;99.90;5.10;98451.00;;;;338426;28;82504;-91
2021/12/02 00:08:48;;;;;;;;;;;4.40;99.90;5.10;98452.00;;;;340977;28;83111;-91
2021/12/02 00:08:59;;;;;;;;;;;4.40;99.90;5.10;98441.00;;;;339963;28;83319;-90
2021/12/02 00:09:11;;;;;;;;;;;4.50;99.90;5.10;98439.00;;;;337027;28;83953;-91
2021/12/02 00:09:23;;;;;;;;;;;4.40;99.90;5.10;98445.00;;;;339768;28;83448;-91
2021/12/02 00:09:35;;;;;;;;;;;4.40;99.90;5.00;98446.00;;;;339623;28;84779;-91
2021/12/02 00:09:48;;;;;;;;;;;4.50;99.90;5.00;98450.00;;;;339980;28;83244;-90
2021/12/02 00:10:01;;;;;;;;;;;4.40;99.90;5.00;98447.00;;;;339710;28;82772;-91
2021/12/02 00:10:12;;;;;;;;;;;4.40;99.90;5.00;98445.00;;;;339866;28;82437;-91
2021/12/02 00:10:28;;;;;;;;;;;4.40;99.90;5.00;98454.00;;;;337971;28;85028;-91
2021/12/02 00:10:41;;;;;;;;;;;4.50;99.90;5.00;98447.00;;;;339718;28;82313;-91
2021/12/02 00:10:53;;;;;;;;;;;4.40;99.90;5.00;98452.00;;;;340930;28;84731;-90
2021/12/02 00:11:04;;;;;;;;;;;4.40;99.90;5.00;98452.00;;;;339675;28;83277;-91
2021/12/02 00:11:16;;;;;;;;;;;4.40;99.90;5.00;98444.00;;;;339296;28;87543;-91
2021/12/02 00:11:29;;;;;;;;;;;4.40;99.90;5.00;98445.00;;;;339630;28;83650;-91
2021/12/02 00:11:41;;;;;;;;;;;4.50;99.90;5.00;98444.00;;;;338186;28;85394;-90
2021/12/02 00:11:53;;;;;;;;;;;4.50;99.90;5.00;98442.00;;;;336999;28;83276;-91
2021/12/02 00:12:06;;;;;;;;;;;4.40;99.90;5.10;98442.00;;;;342202;28;86686;-91
2021/12/02 00:12:17;;;;;;;;;;;4.50;99.90;5.10;98443.00;;;;339032;28;83979;-90
2021/12/02 00:12:29;;;;;;;;;;;4.50;99.90;5.10;98448.00;;;;336765;28;87586;-91
2021/12/02 00:12:41;;;;;;;;;;;4.50;99.90;5.10;98447.00;;;;339367;28;83671;-90
2021/12/02 00:12:55;;;;;;;;;;;4.40;99.90;5.10;98444.00;;;;339408;28;85524;-91
2021/12/02 00:13:07;;;;;;;;;;;4.50;99.90;5.10;98442.00;;;;341134;28;82393;-90
2021/12/02 00:13:24;;;;;;;;;;;4.50;99.90;5.10;98443.00;;;;339434;28;84040;-91
2021/12/02 00:14:10;;;;;;;;;;;4.50;99.90;5.10;98451.00;;;;340956;28;82522;-91
2021/12/02 00:14:26;;;;;;;;;;;4.50;99.90;5.00;98447.00;;;;339556;28;82510;-92
2021/12/02 00:14:40;;;;;;;;;;;4.50;99.90;5.00;98449.00;;;;338297;28;84748;-91
2021/12/02 00:14:53;;;;;;;;;;;4.50;99.90;5.00;98446.00;;;;340854;28;83425;-90
2021/12/02 00:15:06;;;;;;;;;;;4.50;99.90;5.00;98443.00;;;;341013;28;83822;-89
2021/12/02 00:15:23;;;;;;;;;;;4.50;99.90;5.00;98440.00;;;;336967;28;82405;-91
2021/12/02 00:15:40;;;;;;;;;;;4.50;99.90;5.00;98443.00;;;;340930;28;85060;-91
2021/12/02 00:16:40;;;;;;;;;;;4.50;99.90;5.00;98445.00;;;;338876;28;83999;-91
2021/12/02 00:17:33;;;;;;;;;;;4.50;99.90;5.10;98446.00;;;;341170;28;83053;-90
2021/12/02 00:17:53;;;;;;;;;;;4.50;99.90;5.00;98447.00;;;;339978;28;83227;-90
2021/12/02 00:21:09;;;;;;;;;;;4.50;99.90;5.00;98440.00;;;;340674;28;83182;-91
2021/12/02 00:21:26;;;;;;;;;;;4.50;99.90;5.00;98437.00;;;;339079;28;86803;-91
2021/12/02 00:21:39;;;;;;;;;;;4.40;99.90;5.00;98443.00;;;;336710;28;83579;-90
2021/12/02 00:21:53;;;;;;;;;;;4.50;99.90;5.00;98430.00;;;;339466;28;84212;-90
2021/12/02 00:22:05;;;;;;;;;;;4.50;99.90;5.00;98427.00;;;;342046;28;83330;-90
2021/12/02 00:22:16;;;;;;;;;;;4.40;99.90;5.00;98434.00;;;;339289;28;84199;-90
2021/12/02 00:22:28;;;;;;;;;;;4.40;99.90;5.00;98439.00;;;;337883;28;82512;-90
2021/12/02 00:23:24;;;;;;;;;;;4.50;99.90;5.00;98446.00;;;;340542;28;85196;-90
2021/12/02 00:23:39;;;;;;;;;;;4.40;99.90;5.00;98439.00;;;;339475;28;82381;-90
2021/12/02 00:24:07;;;;;;;;;;;4.40;99.90;5.00;98431.00;;;;339176;28;84855;-90
2021/12/02 00:24:19;;;;;;;;;;;4.40;99.90;5.00;98429.00;;;;336774;28;82166;-91
2021/12/02 00:24:35;;;;;;;;;;;4.40;99.90;5.00;98436.00;;;;339115;28;84882;-90
2021/12/02 00:24:47;;;;;;;;;;;4.40;99.90;5.00;98429.00;;;;339202;28;83385;-90
2021/12/02 00:25:01;;;;;;;;;;;4.40;99.90;5.00;98428.00;;;;337794;28;84921;-91
2021/12/02 00:25:12;;;;;;;;;;;4.40;99.90;4.90;98431.00;;;;339181;28;83561;-90
2021/12/02 00:25:24;;;;;;;;;;;4.40;99.90;5.00;98427.00;;;;339274;28;83730;-90
2021/12/02 00:25:36;;;;;;;;;;;4.40;99.90;4.90;98424.00;;;;336303;28;82631;-90
2021/12/02 00:25:49;;;;;;;;;;;4.40;99.90;4.90;98434.00;;;;336680;28;83450;-90
2021/12/02 00:26:03;;;;;;;;;;;4.40;99.90;4.90;98436.00;;;;337764;28;83290;-90
2021/12/02 00:26:16;;;;;;;;;;;4.40;99.90;4.90;98428.00;;;;340361;28;85409;-91
2021/12/02 00:26:28;;;;;;;;;;;4.40;99.90;4.90;98430.00;;;;342976;28;82474;-90
2021/12/02 00:26:40;;;;;;;;;;;4.40;99.90;4.90;98430.00;;;;341909;28;84561;-90
2021/12/02 00:26:52;;;;;;;;;;;4.40;99.90;4.90;98434.00;;;;343206;28;83581;-90
2021/12/02 00:27:05;;;;;;;;;;;4.40;99.90;4.90;98430.00;;;;343040;28;87668;-90
2021/12/02 00:27:17;;;;;;;;;;;4.40;99.90;4.90;98431.00;;;;345041;28;83233;-90
2021/12/02 00:27:29;;;;;;;;;;;4.40;99.90;4.90;98430.00;;;;348625;27;86178;-90
2021/12/02 00:27:41;;;;;;;;;;;4.40;99.90;4.90;98433.00;;;;348618;27;83386;-91
2021/12/02 00:27:53;;;;;;;;;;;4.40;99.90;4.90;98429.00;;;;346027;28;85305;-90
2021/12/02 00:28:05;;;;;;;;;;;4.40;99.90;4.90;98439.00;;;;348642;27;83411;-90
2021/12/02 00:28:18;;;;;;;;;;;4.40;99.90;4.90;98425.00;;;;345995;28;86443;-91
2021/12/02 00:28:30;;;;;;;;;;;4.40;99.90;4.90;98424.00;;;;346118;28;83217;-91
2021/12/02 00:28:42;;;;;;;;;;;4.40;99.90;5.00;98431.00;;;;347201;28;86522;-91
2021/12/02 00:28:55;;;;;;;;;;;4.40;99.90;5.00;98437.00;;;;347619;28;83058;-90
2021/12/02 00:29:08;;;;;;;;;;;4.40;99.90;5.00;98434.00;;;;347243;28;85422;-90
2021/12/02 00:29:21;;;;;;;;;;;4.40;99.90;5.00;98423.00;;;;345837;28;82402;-90
2021/12/02 00:29:33;;;;;;;;;;;4.40;99.90;5.00;98434.00;;;;345763;28;87209;-91
2021/12/02 00:29:45;;;;;;;;;;;4.40;99.90;5.00;98432.00;;;;346061;28;82353;-89
2021/12/02 00:29:58;;;;;;;;;;;4.40;99.90;5.00;98423.00;;;;344626;28;86308;-91
2021/12/02 00:30:10;;;;;;;;;;;4.40;99.90;5.00;98426.00;;;;344718;28;83425;-91
2021/12/02 00:30:22;;;;;;;;;;;4.40;99.90;4.90;98432.00;;;;343892;28;84023;-91
2021/12/02 00:30:34;;;;;;;;;;;4.40;99.90;4.90;98431.00;;;;347492;28;82557;-91
2021/12/02 00:30:46;;;;;;;;;;;4.40;99.90;5.00;98428.00;;;;345986;28;84658;-91
2021/12/02 00:31:00;;;;;;;;;;;4.40;99.90;5.00;98435.00;;;;347517;28;83227;-91
2021/12/02 00:31:15;;;;;;;;;;;4.40;99.90;5.00;98437.00;;;;344605;28;85342;-91
2021/12/02 00:31:29;;;;;;;;;;;4.40;99.90;5.00;98430.00;;;;344851;28;82367;-91
2021/12/02 00:31:43;;;;;;;;;;;4.40;99.90;5.00;98435.00;;;;347454;28;85406;-91
2021/12/02 00:31:55;;;;;;;;;;;4.40;99.90;5.00;98434.00;;;;347532;28;83241;-91
2021/12/02 00:32:08;;;;;;;;;;;4.40;99.90;5.10;98430.00;;;;350103;27;84587;-91
2021/12/02 00:32:20;;;;;;;;;;;4.40;99.90;5.10;98428.00;;;;347701;28;82318;-91
2021/12/02 00:32:32;;;;;;;;;;;4.40;99.90;5.10;98432.00;;;;347040;28;87895;-90
2021/12/02 00:32:43;;;;;;;;;;;4.40;99.90;5.10;98432.00;;;;344838;28;82356;-91
2021/12/02 00:32:56;;;;;;;;;;;4.40;99.90;5.10;98434.00;;;;347157;28;82979;-91
2021/12/02 00:33:07;;;;;;;;;;;4.40;99.90;5.10;98428.00;;;;345925;28;82492;-90
2021/12/02 00:33:19;;;;;;;;;;;4.40;99.90;5.10;98429.00;;;;347299;28;83579;-90
2021/12/02 00:33:32;;;;;;;;;;;4.40;99.90;5.10;98423.00;;;;347531;28;83076;-91
2021/12/02 00:33:47;;;;;;;;;;;4.40;99.90;5.10;98426.00;;;;346091;28;85506;-91
2021/12/02 00:34:01;;;;;;;;;;;4.40;99.90;5.10;98421.00;;;;347270;28;83257;-90
2021/12/02 00:34:13;;;;;;;;;;;4.40;99.90;5.10;98434.00;;;;348616;27;87626;-91
2021/12/02 00:34:25;;;;;;;;;;;4.40;99.90;5.00;98434.00;;;;346044;28;83534;-89
2021/12/02 00:34:44;;;;;;;;;;;4.40;99.90;5.00;98436.00;;;;348323;27;85330;-91
2021/12/02 00:34:56;;;;;;;;;;;4.40;99.90;5.00;98429.00;;;;347311;28;83475;-91
2021/12/02 00:35:08;;;;;;;;;;;4.40;99.90;5.00;98432.00;;;;344584;28;85376;-90
2021/12/02 00:35:20;;;;;;;;;;;4.40;99.90;5.00;98433.00;;;;345990;28;83483;-91
2021/12/02 00:35:32;;;;;;;;;;;4.40;99.90;5.00;98435.00;;;;344650;28;85388;-90
2021/12/02 00:35:44;;;;;;;;;;;4.40;99.90;5.00;98429.00;;;;344840;28;83417;-91
2021/12/02 00:35:56;;;;;;;;;;;4.40;99.90;5.00;98429.00;;;;345977;28;84549;-91
2021/12/02 00:36:08;;;;;;;;;;;4.40;99.90;5.10;98432.00;;;;348948;27;82165;-90
2021/12/02 00:36:22;;;;;;;;;;;4.40;99.90;5.10;98431.00;;;;343894;28;85084;-91
2021/12/02 00:36:35;;;;;;;;;;;4.40;99.90;5.10;98432.00;;;;344567;28;83224;-91
2021/12/02 00:36:47;;;;;;;;;;;4.40;99.90;5.10;98427.00;;;;346085;28;84035;-91
2021/12/02 00:37:00;;;;;;;;;;;4.40;99.90;5.10;98434.00;;;;346176;28;83299;-90
2021/12/02 00:37:12;;;;;;;;;;;4.40;99.90;5.10;98434.00;;;;347374;28;84999;-91
2021/12/02 00:37:24;;;;;;;;;;;4.40;99.90;5.10;98439.00;;;;347466;28;83528;-91
2021/12/02 00:37:37;;;;;;;;;;;4.40;99.90;5.10;98437.00;;;;347372;28;85013;-90
2021/12/02 00:37:49;;;;;;;;;;;4.50;99.90;5.10;98429.00;;;;348888;27;83280;-91
2021/12/02 00:38:01;;;;;;;;;;;4.50;99.90;5.10;98422.00;;;;345784;28;87758;-91
2021/12/02 00:38:13;;;;;;;;;;;4.50;99.90;5.10;98431.00;;;;349048;27;83156;-91
2021/12/02 00:38:25;;;;;;;;;;;4.40;99.90;5.10;98433.00;;;;350239;27;85218;-91
2021/12/02 00:38:38;;;;;;;;;;;4.50;99.90;5.10;98434.00;;;;348926;27;83018;-91
2021/12/02 00:38:51;;;;;;;;;;;4.50;99.90;5.10;98437.00;;;;345817;28;84629;-91
2021/12/02 00:39:32;;;;;;;;;;;4.50;99.90;5.00;98441.00;;;;348357;27;83514;-91
2021/12/02 00:39:43;;;;;;;;;;;4.50;99.90;5.10;98438.00;;;;344580;28;85351;-91
2021/12/02 00:39:55;;;;;;;;;;;4.50;99.90;5.20;98437.00;;;;344551;28;83364;-91
2021/12/02 00:40:08;;;;;;;;;;;4.50;99.90;5.30;98448.00;;;;346404;27;85093;-90
2021/12/02 00:40:20;;;;;;;;;;;4.50;99.90;5.30;98448.00;;;;348867;27;83393;-91
2021/12/02 00:40:34;;;;;;;;;;;4.50;99.90;5.30;98447.00;;;;348775;27;85194;-91
2021/12/02 00:40:46;;;;;;;;;;;4.50;99.90;5.20;98437.00;;;;346100;28;83381;-91
2021/12/02 00:40:59;;;;;;;;;;;4.50;99.90;5.20;98445.00;;;;343171;28;83738;-91
2021/12/02 00:41:11;;;;;;;;;;;4.50;99.90;5.20;98437.00;;;;345899;28;82445;-91
2021/12/02 00:41:25;;;;;;;;;;;4.60;99.90;5.20;98438.00;;;;344662;28;83545;-91
2021/12/02 00:41:37;;;;;;;;;;;4.60;99.90;5.20;98430.00;;;;345827;28;83261;-91
2021/12/02 00:41:49;;;;;;;;;;;4.60;99.90;5.20;98436.00;;;;347353;28;83028;-91
2021/12/02 00:42:01;;;;;;;;;;;4.50;99.90;5.20;98440.00;;;;346217;28;82384;-91
2021/12/02 00:42:12;;;;;;;;;;;4.60;99.90;5.20;98438.00;;;;347487;28;85356;-91
2021/12/02 00:42:25;;;;;;;;;;;4.60;99.90;5.20;98440.00;;;;347193;28;83567;-91
2021/12/02 00:42:36;;;;;;;;;;;4.60;99.90;5.20;98443.00;;;;345812;28;84109;-91
2021/12/02 00:42:48;;;;;;;;;;;4.60;99.90;5.20;98439.00;;;;344847;28;83073;-91
2021/12/02 00:43:00;;;;;;;;;;;4.60;99.90;5.20;98433.00;;;;348826;27;85495;-90
2021/12/02 00:43:12;;;;;;;;;;;4.60;99.90;5.10;98441.00;;;;348741;27;82653;-90
2021/12/02 00:43:24;;;;;;;;;;;4.60;99.90;5.20;98442.00;;;;347126;28;85566;-91
2021/12/02 00:43:36;;;;;;;;;;;4.60;99.90;5.10;98439.00;;;;347253;28;83254;-91
2021/12/02 00:43:49;;;;;;;;;;;4.60;99.90;5.10;98439.00;;;;345917;28;84009;-91
2021/12/02 00:44:01;;;;;;;;;;;4.60;99.90;5.10;98440.00;;;;348765;27;82445;-91
2021/12/02 00:44:13;;;;;;;;;;;4.60;99.90;5.10;98444.00;;;;347508;28;83939;-91
2021/12/02 00:44:25;;;;;;;;;;;4.60;99.90;5.10;98448.00;;;;344706;28;83185;-90
2021/12/02 00:44:37;;;;;;;;;;;4.60;99.90;5.10;98444.00;;;;345981;28;84228;-91
2021/12/02 00:44:50;;;;;;;;;;;4.60;99.90;5.10;98434.00;;;;348793;27;82459;-91
2021/12/02 00:45:02;;;;;;;;;;;4.60;99.90;5.10;98437.00;;;;347249;28;86984;-91
2021/12/02 00:45:14;;;;;;;;;;;4.50;99.90;5.10;98438.00;;;;347491;28;83143;-91
2021/12/02 00:45:26;;;;;;;;;;;4.50;99.90;5.00;98439.00;;;;345977;28;84685;-91
2021/12/02 00:45:41;;;;;;;;;;;4.50;99.90;5.00;98455.00;;;;348677;27;84072;-91
2021/12/02 00:45:53;;;;;;;;;;;4.50;99.90;5.00;98443.00;;;;348418;27;86489;-91
2021/12/02 00:46:08;;;;;;;;;;;4.50;99.90;5.00;98449.00;;;;348632;27;83489;-91
2021/12/02 00:46:21;;;;;;;;;;;4.50;99.90;5.00;98428.00;;;;347142;28;86368;-91
2021/12/02 00:46:34;;;;;;;;;;;4.50;99.90;5.00;98448.00;;;;348987;27;82455;-91
2021/12/02 00:46:46;;;;;;;;;;;4.50;99.90;5.00;98447.00;;;;348804;27;85494;-91
2021/12/02 00:47:02;;;;;;;;;;;4.50;99.90;5.00;98450.00;;;;346094;28;83114;-91
2021/12/02 00:47:14;;;;;;;;;;;4.50;99.90;5.00;98447.00;;;;347089;28;87792;-91
2021/12/02 00:47:26;;;;;;;;;;;4.50;99.90;5.00;98457.00;;;;346226;28;82339;-91
2021/12/02 00:47:38;;;;;;;;;;;4.50;99.90;5.00;98453.00;;;;345714;28;89373;-91
2021/12/02 00:47:50;;;;;;;;;;;4.50;99.90;5.00;98449.00;;;;346067;28;83231;-91
2021/12/02 00:48:02;;;;;;;;;;;4.50;99.90;5.00;98448.00;;;;344246;28;90960;-91
2021/12/02 00:48:14;;;;;;;;;;;4.50;99.90;5.00;98446.00;;;;346256;28;83492;-91
2021/12/02 00:48:26;;;;;;;;;;;4.50;99.90;4.90;98455.00;;;;347087;28;89426;-90
2021/12/02 00:48:38;;;;;;;;;;;4.50;99.90;5.00;98455.00;;;;346117;28;82263;-91
2021/12/02 00:48:50;;;;;;;;;;;4.50;99.90;5.00;98466.00;;;;344824;28;91458;-91
2021/12/02 00:49:03;;;;;;;;;;;4.50;99.90;4.90;98460.00;;;;345910;28;82417;-91
2021/12/02 00:49:17;;;;;;;;;;;4.50;99.90;4.90;98447.00;;;;348320;27;88819;-90
2021/12/02 00:49:29;;;;;;;;;;;4.50;99.90;4.90;98455.00;;;;350370;27;83380;-91
2021/12/02 00:49:41;;;;;;;;;;;4.50;99.90;4.90;98453.00;;;;345327;28;91521;-90
2021/12/02 00:49:53;;;;;;;;;;;4.40;99.90;4.90;98451.00;;;;346002;28;83352;-90
2021/12/02 00:50:05;;;;;;;;;;;4.40;99.90;4.90;98455.00;;;;346742;28;92091;-90
2021/12/02 00:50:17;;;;;;;;;;;4.40;99.90;4.90;98462.00;;;;347331;28;83403;-91
2021/12/02 00:50:29;;;;;;;;;;;4.40;99.90;4.90;98460.00;;;;347080;28;89685;-91
2021/12/02 00:50:45;;;;;;;;;;;4.40;99.90;5.00;98464.00;;;;348849;27;83286;-91
2021/12/02 00:50:57;;;;;;;;;;;4.40;99.90;4.90;98459.00;;;;346936;28;89204;-90
2021/12/02 00:51:11;;;;;;;;;;;4.40;99.90;4.90;98461.00;;;;348417;27;83427;-91
2021/12/02 00:51:22;;;;;;;;;;;4.40;99.90;4.90;98458.00;;;;348516;27;88412;-90
2021/12/02 00:51:35;;;;;;;;;;;4.40;99.90;4.90;98461.00;;;;344607;28;83383;-91
2021/12/02 00:51:53;;;;;;;;;;;4.40;99.90;5.00;98464.00;;;;345593;28;89745;-91
2021/12/02 00:52:05;;;;;;;;;;;4.40;99.90;5.10;98453.00;;;;344827;28;83171;-90
2021/12/02 00:52:17;;;;;;;;;;;4.40;99.90;5.00;98460.00;;;;346761;28;91959;-91
2021/12/02 00:52:29;;;;;;;;;;;4.40;99.90;5.00;98462.00;;;;346043;28;83101;-90
2021/12/02 00:52:41;;;;;;;;;;;4.40;99.90;5.10;98463.00;;;;347050;28;90411;-91
2021/12/02 00:52:52;;;;;;;;;;;4.50;99.90;5.10;98457.00;;;;348867;27;83465;-91
2021/12/02 00:53:05;;;;;;;;;;;4.40;99.90;5.10;98456.00;;;;348376;27;89999;-90
2021/12/02 00:53:19;;;;;;;;;;;4.40;99.90;5.10;98461.00;;;;348831;27;83383;-90
2021/12/02 00:53:33;;;;;;;;;;;4.50;99.90;5.10;98454.00;;;;346758;28;90150;-90
2021/12/02 00:53:51;;;;;;;;;;;4.50;99.90;5.10;98465.00;;;;347498;28;83155;-91
2021/12/02 00:54:05;;;;;;;;;;;4.40;99.90;5.20;98457.00;;;;347104;28;88986;-91
2021/12/02 00:54:17;;;;;;;;;;;4.50;99.90;5.10;98462.00;;;;347544;28;83193;-91
2021/12/02 00:54:30;;;;;;;;;;;4.50;99.90;5.10;98453.00;;;;343345;28;90579;-90
2021/12/02 00:54:42;;;;;;;;;;;4.50;99.90;5.20;98451.00;;;;341902;28;82238;-90
2021/12/02 00:54:55;;;;;;;;;;;4.50;99.90;5.20;98450.00;;;;341349;28;89250;-91
2021/12/02 00:55:07;;;;;;;;;;;4.50;99.90;5.20;98450.00;;;;338949;28;83327;-90
2021/12/02 00:55:19;;;;;;;;;;;4.50;99.90;5.20;98447.00;;;;339781;28;91378;-91
2021/12/02 00:55:31;;;;;;;;;;;4.50;99.90;5.20;98445.00;;;;341775;28;83304;-91
2021/12/02 00:55:43;;;;;;;;;;;4.50;99.90;5.20;98445.00;;;;341427;28;90015;-91
2021/12/02 00:55:54;;;;;;;;;;;4.50;99.90;5.20;98451.00;;;;338879;28;83303;-91
2021/12/02 00:56:06;;;;;;;;;;;4.50;99.90;5.20;98444.00;;;;340076;28;90282;-90
2021/12/02 00:56:21;;;;;;;;;;;4.50;99.90;5.20;98452.00;;;;339122;28;83411;-91
2021/12/02 00:56:33;;;;;;;;;;;4.50;99.90;5.20;98447.00;;;;339960;28;90805;-91
2021/12/02 00:56:45;;;;;;;;;;;4.50;99.90;5.20;98446.00;;;;340481;28;83182;-90
2021/12/02 00:56:57;;;;;;;;;;;4.50;99.90;5.20;98450.00;;;;339947;28;91743;-91
2021/12/02 00:57:11;;;;;;;;;;;4.50;99.90;5.20;98451.00;;;;341698;27;83415;-90
2021/12/02 00:57:23;;;;;;;;;;;4.50;99.90;5.10;98439.00;;;;341120;28;90699;-91
2021/12/02 00:57:40;;;;;;;;;;;4.50;99.90;5.10;98448.00;;;;341745;28;83361;-90
2021/12/02 00:57:52;;;;;;;;;;;4.50;99.90;5.10;98448.00;;;;338585;28;91173;-91
2021/12/02 00:58:04;;;;;;;;;;;4.60;99.90;5.10;98456.00;;;;340390;28;83271;-91
2021/12/02 00:58:19;;;;;;;;;;;4.60;99.90;5.20;98450.00;;;;339789;28;91601;-90
2021/12/02 00:58:31;;;;;;;;;;;4.60;99.90;5.20;98458.00;;;;340483;28;83290;-90
2021/12/02 00:58:46;;;;;;;;;;;4.60;99.90;5.20;98447.00;;;;339942;28;92210;-91
2021/12/02 00:58:58;;;;;;;;;;;4.60;99.90;5.20;98452.00;;;;340252;28;82527;-91
2021/12/02 00:59:10;;;;;;;;;;;4.60;99.90;5.10;98451.00;;;;338419;28;90776;-90
2021/12/02 00:59:23;;;;;;;;;;;4.60;99.90;5.10;98454.00;;;;339112;28;83292;-91
2021/12/02 00:59:34;;;;;;;;;;;4.60;99.90;5.10;98450.00;;;;338450;28;91699;-91
2021/12/02 00:59:47;;;;;;;;;;;4.60;99.90;5.10;98444.00;;;;340342;28;83358;-90
2021/12/02 01:00:01;;;;;;;;;;;4.60;99.90;5.10;98455.00;;;;339410;28;88360;-90
2021/12/02 01:00:13;;;;;;;;;;;4.60;99.90;5.10;98450.00;;;;337865;28;83313;-91
2021/12/02 01:00:25;;;;;;;;;;;4.60;99.90;5.10;98457.00;;;;338605;28;91435;-90
2021/12/02 01:00:37;;;;;;;;;;;4.60;99.90;5.10;98446.00;;;;339141;28;83352;-91
2021/12/02 01:00:51;;;;;;;;;;;4.60;99.90;5.10;98452.00;;;;339996;28;89828;-90
2021/12/02 01:01:03;;;;;;;;;;;4.60;99.90;5.10;98447.00;;;;339011;28;82544;-89
2021/12/02 01:01:16;;;;;;;;;;;4.60;99.90;5.10;98456.00;;;;340021;28;89361;-91
2021/12/02 01:01:34;;;;;;;;;;;4.60;99.90;5.10;98455.00;;;;339154;28;83501;-91
2021/12/02 01:01:48;;;;;;;;;;;4.60;99.90;5.10;98455.00;;;;337398;28;88578;-91
2021/12/02 01:02:00;;;;;;;;;;;4.60;99.90;5.10;98460.00;;;;337822;28;83351;-91
2021/12/02 01:02:12;;;;;;;;;;;4.60;99.90;5.10;98456.00;;;;338859;28;87727;-91
2021/12/02 01:02:24;;;;;;;;;;;4.60;99.90;5.10;98454.00;;;;339137;28;83277;-91
2021/12/02 01:02:36;;;;;;;;;;;4.60;99.90;5.10;98458.00;;;;341321;28;89479;-91
2021/12/02 01:02:49;;;;;;;;;;;4.60;99.90;5.10;98451.00;;;;339166;28;83392;-91
2021/12/02 01:03:02;;;;;;;;;;;4.60;99.90;5.10;98453.00;;;;338476;28;91452;-90
2021/12/02 01:03:14;;;;;;;;;;;4.60;99.90;5.10;98456.00;;;;338645;28;84063;-91
2021/12/02 01:03:31;;;;;;;;;;;4.60;99.90;5.10;98453.00;;;;340056;28;89148;-91
2021/12/02 01:03:43;;;;;;;;;;;4.60;99.90;5.10;98453.00;;;;341679;28;82323;-89
2021/12/02 01:03:57;;;;;;;;;;;4.60;99.90;5.20;98455.00;;;;338672;28;91548;-91
2021/12/02 01:04:13;;;;;;;;;;;4.60;99.90;5.10;98452.00;;;;336548;29;83109;-91
2021/12/02 01:04:26;;;;;;;;;;;4.60;99.90;5.10;98447.00;;;;338706;28;89409;-89
2021/12/02 01:04:38;;;;;;;;;;;4.60;99.90;5.20;98449.00;;;;340357;28;83297;-91
2021/12/02 01:04:50;;;;;;;;;;;4.60;99.90;5.20;98447.00;;;;338745;28;91354;-91
2021/12/02 01:05:02;;;;;;;;;;;4.60;99.90;5.20;98445.00;;;;341814;28;82656;-91
2021/12/02 01:05:14;;;;;;;;;;;4.60;99.90;5.20;98458.00;;;;338415;28;91382;-91
2021/12/02 01:05:26;;;;;;;;;;;4.60;99.90;5.30;98445.00;;;;336562;28;83293;-91
2021/12/02 01:05:38;;;;;;;;;;;4.60;99.90;5.30;98452.00;;;;339887;28;91440;-91
2021/12/02 01:05:51;;;;;;;;;;;4.60;99.90;5.30;98446.00;;;;337786;28;83247;-90
2021/12/02 01:06:05;;;;;;;;;;;4.60;99.90;5.40;98449.00;;;;337436;28;88371;-91
2021/12/02 01:06:17;;;;;;;;;;;4.60;99.90;5.40;98448.00;;;;340464;28;83399;-91
2021/12/02 01:06:29;;;;;;;;;;;4.70;99.90;5.40;98448.00;;;;339843;28;90244;-90
2021/12/02 01:06:40;;;;;;;;;;;4.70;99.90;5.40;98449.00;;;;339211;28;82276;-91
2021/12/02 01:06:54;;;;;;;;;;;4.70;99.90;5.40;98441.00;;;;340087;28;91026;-91
2021/12/02 01:07:06;;;;;;;;;;;4.70;99.90;5.40;98447.00;;;;339150;28;83373;-90
2021/12/02 01:07:18;;;;;;;;;;;4.70;99.90;5.40;98448.00;;;;337361;28;88963;-91
2021/12/02 01:07:30;;;;;;;;;;;4.70;99.90;5.40;98450.00;;;;339222;28;82282;-91
2021/12/02 01:07:42;;;;;;;;;;;4.60;99.90;5.30;98447.00;;;;337486;28;89500;-91
2021/12/02 01:07:54;;;;;;;;;;;4.70;99.90;5.30;98440.00;;;;338892;28;82488;-91
2021/12/02 01:08:06;;;;;;;;;;;4.70;99.90;5.30;98452.00;;;;338331;28;91922;-91
2021/12/02 01:08:19;;;;;;;;;;;4.70;99.90;5.30;98446.00;;;;339008;28;82607;-91
2021/12/02 01:08:32;;;;;;;;;;;4.70;99.90;5.30;98441.00;;;;338711;28;88190;-90
2021/12/02 01:08:44;;;;;;;;;;;4.70;99.90;5.30;98451.00;;;;339257;28;83325;-90
2021/12/02 01:08:55;;;;;;;;;;;4.70;99.90;5.30;98447.00;;;;337444;28;87897;-91
2021/12/02 01:09:08;;;;;;;;;;;4.70;99.90;5.30;98453.00;;;;338851;28;82450;-90
2021/12/02 01:09:20;;;;;;;;;;;4.70;99.90;5.30;98447.00;;;;339295;28;88845;-91
2021/12/02 01:09:32;;;;;;;;;;;4.70;99.90;5.30;98443.00;;;;340606;28;82342;-90
2021/12/02 01:09:47;;;;;;;;;;;4.70;99.90;5.30;98448.00;;;;341517;27;89189;-91
2021/12/02 01:09:59;;;;;;;;;;;4.70;99.90;5.30;98449.00;;;;340424;28;82367;-91
2021/12/02 01:10:11;;;;;;;;;;;4.70;99.90;5.40;98452.00;;;;338830;28;87756;-90
2021/12/02 01:10:23;;;;;;;;;;;4.70;99.90;5.30;98443.00;;;;340440;28;83385;-91
2021/12/02 01:10:35;;;;;;;;;;;4.70;99.90;5.30;98446.00;;;;338510;28;88361;-91
2021/12/02 01:10:47;;;;;;;;;;;4.70;99.90;5.30;98448.00;;;;340434;28;83503;-91
2021/12/02 01:10:59;;;;;;;;;;;4.70;99.90;5.40;98443.00;;;;338770;28;89500;-91